sensor_id;sensor_type;location;lat;lon;timestamp;temperature;humidity
54796;DHT22;40693;43.884;20.340;2023-08-31T00:00:43;537.90;2406.40
54796;DHT22;40693;43.884;20.340;2023-08-31T00:03:09;537.80;2406.40
54796;DHT22;40693;43.884;20.340;2023-08-31T00:05:42;537.70;2406.40
54796;DHT22;40693;43.884;20.340;2023-08-31T00:08:09;537.80;2406.40
54796;DHT22;40693;43.884;20.340;2023-08-31T00:10:37;537.70;2406.40
54796;DHT22;40693;43.884;20.340;2023-08-31T00:13:04;512.70;2380.80
54796;DHT22;40693;43.884;20.340;2023-08-31T00:15:30;537.70;2406.40
54796;DHT22;40693;43.884;20.340;2023-08-31T00:17:58;537.70;2406.40
54796;DHT22;40693;43.884;20.340;2023-08-31T00:20:24;512.90;2380.80
54796;DHT22;40693;43.884;20.340;2023-08-31T00:22:50;512.90;2380.80
54796;DHT22;40693;43.884;20.340;2023-08-31T00:25:16;512.80;2380.80
54796;DHT22;40693;43.884;20.340;2023-08-31T00:27:42;512.70;2380.80
54796;DHT22;40693;43.884;20.340;2023-08-31T00:30:10;512.60;2380.80
54796;DHT22;40693;43.884;20.340;2023-08-31T00:32:37;512.60;2380.80
54796;DHT22;40693;43.884;20.340;2023-08-31T00:35:05;512.50;2380.80
54796;DHT22;40693;43.884;20.340;2023-08-31T00:37:31;512.50;2380.80
54796;DHT22;40693;43.884;20.340;2023-08-31T00:39:56;512.50;2380.80
54796;DHT22;40693;43.884;20.340;2023-08-31T00:42:22;512.40;2380.80
54796;DHT22;40693;43.884;20.340;2023-08-31T00:44:50;512.40;2380.80
54796;DHT22;40693;43.884;20.340;2023-08-31T00:47:16;512.30;2380.80
54796;DHT22;40693;43.884;20.340;2023-08-31T00:49:42;512.20;2380.80
54796;DHT22;40693;43.884;20.340;2023-08-31T00:52:07;512.20;2380.80
54796;DHT22;40693;43.884;20.340;2023-08-31T00:54:34;512.20;2380.80
54796;DHT22;40693;43.884;20.340;2023-08-31T00:57:00;512.30;2380.80
54796;DHT22;40693;43.884;20.340;2023-08-31T00:59:26;512.30;2380.80
54796;DHT22;40693;43.884;20.340;2023-08-31T01:02:11;512.30;2380.80
54796;DHT22;40693;43.884;20.340;2023-08-31T01:12:50;512.30;2380.80
54796;DHT22;40693;43.884;20.340;2023-08-31T01:15:17;512.20;2380.80
54796;DHT22;40693;43.884;20.340;2023-08-31T01:17:54;512.10;2380.80
54796;DHT22;40693;43.884;20.340;2023-08-31T01:20:58;512.10;2380.80
54796;DHT22;40693;43.884;20.340;2023-08-31T01:26:01;487.20;2380.80
54796;DHT22;40693;43.884;20.340;2023-08-31T01:28:27;487.20;2380.80
54796;DHT22;40693;43.884;20.340;2023-08-31T01:30:53;487.30;2380.80
54796;DHT22;40693;43.884;20.340;2023-08-31T01:33:19;487.30;2380.80
54796;DHT22;40693;43.884;20.340;2023-08-31T01:35:49;487.30;2380.80
54796;DHT22;40693;43.884;20.340;2023-08-31T01:38:21;487.30;2380.80
54796;DHT22;40693;43.884;20.340;2023-08-31T01:40:55;512.00;2380.80
54796;DHT22;40693;43.884;20.340;2023-08-31T01:43:22;512.00;2380.80
54796;DHT22;40693;43.884;20.340;2023-08-31T01:45:49;512.10;2380.80
54796;DHT22;40693;43.884;20.340;2023-08-31T01:48:17;512.10;2380.80
54796;DHT22;40693;43.884;20.340;2023-08-31T01:50:43;512.10;2380.80
54796;DHT22;40693;43.884;20.340;2023-08-31T01:53:09;512.10;2380.80
54796;DHT22;40693;43.884;20.340;2023-08-31T01:55:35;512.10;2380.80
54796;DHT22;40693;43.884;20.340;2023-08-31T01:58:01;487.30;2380.80
54796;DHT22;40693;43.884;20.340;2023-08-31T02:00:27;487.30;2380.80
54796;DHT22;40693;43.884;20.340;2023-08-31T02:02:53;487.30;2380.80
54796;DHT22;40693;43.884;20.340;2023-08-31T02:05:19;487.20;2380.80
54796;DHT22;40693;43.884;20.340;2023-08-31T02:07:45;487.10;2380.80
54796;DHT22;40693;43.884;20.340;2023-08-31T02:10:10;487.00;2380.80
54796;DHT22;40693;43.884;20.340;2023-08-31T02:12:36;487.10;2380.80
54796;DHT22;40693;43.884;20.340;2023-08-31T02:15:04;487.00;2380.80
54796;DHT22;40693;43.884;20.340;2023-08-31T02:17:31;487.00;2380.80
54796;DHT22;40693;43.884;20.340;2023-08-31T02:19:58;487.10;2380.80
54796;DHT22;40693;43.884;20.340;2023-08-31T02:22:25;487.00;2380.80
54796;DHT22;40693;43.884;20.340;2023-08-31T02:24:51;487.00;2380.80
54796;DHT22;40693;43.884;20.340;2023-08-31T02:27:17;486.90;2380.80
54796;DHT22;40693;43.884;20.340;2023-08-31T02:29:43;487.00;2380.80
54796;DHT22;40693;43.884;20.340;2023-08-31T02:32:09;487.00;2380.80
54796;DHT22;40693;43.884;20.340;2023-08-31T02:34:34;487.00;2380.80
54796;DHT22;40693;43.884;20.340;2023-08-31T02:37:00;487.00;2380.80
54796;DHT22;40693;43.884;20.340;2023-08-31T02:39:26;487.00;2380.80
54796;DHT22;40693;43.884;20.340;2023-08-31T02:41:51;487.00;2380.80
54796;DHT22;40693;43.884;20.340;2023-08-31T02:44:17;486.90;2380.80
54796;DHT22;40693;43.884;20.340;2023-08-31T02:46:43;487.00;2380.80
54796;DHT22;40693;43.884;20.340;2023-08-31T02:49:09;486.90;2380.80
54796;DHT22;40693;43.884;20.340;2023-08-31T02:51:35;486.80;2380.80
54796;DHT22;40693;43.884;20.340;2023-08-31T02:54:00;486.70;2380.80
54796;DHT22;40693;43.884;20.340;2023-08-31T02:56:26;486.80;2380.80
54796;DHT22;40693;43.884;20.340;2023-08-31T02:58:52;486.70;2380.80
54796;DHT22;40693;43.884;20.340;2023-08-31T03:01:17;486.70;2380.80
54796;DHT22;40693;43.884;20.340;2023-08-31T03:03:43;486.80;2380.80
54796;DHT22;40693;43.884;20.340;2023-08-31T03:06:11;486.80;2380.80
54796;DHT22;40693;43.884;20.340;2023-08-31T03:08:37;486.80;2380.80
54796;DHT22;40693;43.884;20.340;2023-08-31T03:11:04;486.80;2380.80
54796;DHT22;40693;43.884;20.340;2023-08-31T03:13:31;486.80;2380.80
54796;DHT22;40693;43.884;20.340;2023-08-31T03:15:56;486.90;2380.80
54796;DHT22;40693;43.884;20.340;2023-08-31T03:18:22;487.20;2380.80
54796;DHT22;40693;43.884;20.340;2023-08-31T03:20:49;486.80;2380.80
54796;DHT22;40693;43.884;20.340;2023-08-31T03:23:14;486.80;2380.80
54796;DHT22;40693;43.884;20.340;2023-08-31T03:25:40;486.80;2380.80
54796;DHT22;40693;43.884;20.340;2023-08-31T03:28:06;486.80;2380.80
54796;DHT22;40693;43.884;20.340;2023-08-31T03:30:32;486.80;2380.80
54796;DHT22;40693;43.884;20.340;2023-08-31T03:32:58;486.80;2380.80
54796;DHT22;40693;43.884;20.340;2023-08-31T03:35:23;486.80;2380.80
54796;DHT22;40693;43.884;20.340;2023-08-31T03:37:53;486.90;2380.80
54796;DHT22;40693;43.884;20.340;2023-08-31T03:40:19;486.90;2380.80
54796;DHT22;40693;43.884;20.340;2023-08-31T03:42:45;486.90;2380.80
54796;DHT22;40693;43.884;20.340;2023-08-31T03:45:11;486.90;2380.80
54796;DHT22;40693;43.884;20.340;2023-08-31T03:47:37;487.00;2380.80
54796;DHT22;40693;43.884;20.340;2023-08-31T03:50:03;487.00;2380.80
54796;DHT22;40693;43.884;20.340;2023-08-31T03:52:29;487.00;2380.80
54796;DHT22;40693;43.884;20.340;2023-08-31T03:54:55;486.90;2380.80
54796;DHT22;40693;43.884;20.340;2023-08-31T03:57:21;486.90;2380.80
54796;DHT22;40693;43.884;20.340;2023-08-31T03:59:47;487.00;2380.80
54796;DHT22;40693;43.884;20.340;2023-08-31T04:02:12;487.00;2380.80
54796;DHT22;40693;43.884;20.340;2023-08-31T04:04:38;487.00;2380.80
54796;DHT22;40693;43.884;20.340;2023-08-31T04:07:05;486.90;2380.80
54796;DHT22;40693;43.884;20.340;2023-08-31T04:09:32;487.00;2380.80
54796;DHT22;40693;43.884;20.340;2023-08-31T04:11:58;487.00;2380.80
54796;DHT22;40693;43.884;20.340;2023-08-31T04:14:26;487.00;2380.80
54796;DHT22;40693;43.884;20.340;2023-08-31T04:16:53;487.00;2380.80
54796;DHT22;40693;43.884;20.340;2023-08-31T04:19:18;487.00;2380.80
54796;DHT22;40693;43.884;20.340;2023-08-31T04:21:44;487.00;2380.80
54796;DHT22;40693;43.884;20.340;2023-08-31T04:24:10;487.00;2380.80
54796;DHT22;40693;43.884;20.340;2023-08-31T04:26:36;487.00;2380.80
54796;DHT22;40693;43.884;20.340;2023-08-31T04:29:03;487.00;2380.80
54796;DHT22;40693;43.884;20.340;2023-08-31T04:31:33;487.00;2380.80
54796;DHT22;40693;43.884;20.340;2023-08-31T04:33:59;487.00;2380.80
54796;DHT22;40693;43.884;20.340;2023-08-31T04:36:24;487.00;2380.80
54796;DHT22;40693;43.884;20.340;2023-08-31T04:38:53;487.00;2380.80
54796;DHT22;40693;43.884;20.340;2023-08-31T04:41:19;487.10;2380.80
54796;DHT22;40693;43.884;20.340;2023-08-31T04:43:45;487.10;2380.80
54796;DHT22;40693;43.884;20.340;2023-08-31T04:46:13;487.20;2380.80
54796;DHT22;40693;43.884;20.340;2023-08-31T04:48:39;487.10;2380.80
54796;DHT22;40693;43.884;20.340;2023-08-31T04:51:05;487.20;2380.80
54796;DHT22;40693;43.884;20.340;2023-08-31T04:53:31;487.20;2380.80
54796;DHT22;40693;43.884;20.340;2023-08-31T04:55:57;487.20;2380.80
54796;DHT22;40693;43.884;20.340;2023-08-31T04:58:22;487.20;2380.80
54796;DHT22;40693;43.884;20.340;2023-08-31T05:00:48;487.30;2380.80
54796;DHT22;40693;43.884;20.340;2023-08-31T05:03:14;487.30;2380.80
54796;DHT22;40693;43.884;20.340;2023-08-31T05:05:40;487.30;2380.80
54796;DHT22;40693;43.884;20.340;2023-08-31T05:08:08;487.20;2380.80
54796;DHT22;40693;43.884;20.340;2023-08-31T05:10:34;487.20;2380.80
54796;DHT22;40693;43.884;20.340;2023-08-31T05:13:00;487.20;2380.80
54796;DHT22;40693;43.884;20.340;2023-08-31T05:15:26;487.30;2380.80
54796;DHT22;40693;43.884;20.340;2023-08-31T05:17:55;487.30;2380.80
54796;DHT22;40693;43.884;20.340;2023-08-31T05:20:21;512.00;2380.80
54796;DHT22;40693;43.884;20.340;2023-08-31T05:22:49;512.00;2380.80
54796;DHT22;40693;43.884;20.340;2023-08-31T05:25:14;512.00;2380.80
54796;DHT22;40693;43.884;20.340;2023-08-31T05:27:40;512.00;2380.80
54796;DHT22;40693;43.884;20.340;2023-08-31T05:30:07;512.10;2380.80
54796;DHT22;40693;43.884;20.340;2023-08-31T05:32:33;512.10;2380.80
54796;DHT22;40693;43.884;20.340;2023-08-31T05:34:58;512.00;2380.80
54796;DHT22;40693;43.884;20.340;2023-08-31T05:37:25;512.00;2380.80
54796;DHT22;40693;43.884;20.340;2023-08-31T05:39:51;512.10;2380.80
54796;DHT22;40693;43.884;20.340;2023-08-31T05:42:17;512.10;2380.80
54796;DHT22;40693;43.884;20.340;2023-08-31T05:44:43;512.20;2380.80
54796;DHT22;40693;43.884;20.340;2023-08-31T05:47:09;512.20;2380.80
54796;DHT22;40693;43.884;20.340;2023-08-31T05:49:35;512.40;2380.80
54796;DHT22;40693;43.884;20.340;2023-08-31T05:52:01;512.30;2380.80
54796;DHT22;40693;43.884;20.340;2023-08-31T05:54:27;512.30;2380.80
54796;DHT22;40693;43.884;20.340;2023-08-31T05:56:53;512.40;2380.80
54796;DHT22;40693;43.884;20.340;2023-08-31T05:59:18;512.50;2380.80
54796;DHT22;40693;43.884;20.340;2023-08-31T06:01:44;512.50;2380.80
54796;DHT22;40693;43.884;20.340;2023-08-31T06:04:10;512.50;2380.80
54796;DHT22;40693;43.884;20.340;2023-08-31T06:06:35;512.70;2380.80
54796;DHT22;40693;43.884;20.340;2023-08-31T06:09:01;512.80;2380.80
54796;DHT22;40693;43.884;20.340;2023-08-31T06:11:27;512.80;2380.80
54796;DHT22;40693;43.884;20.340;2023-08-31T06:13:53;512.90;2380.80
54796;DHT22;40693;43.884;20.340;2023-08-31T06:16:19;512.90;2380.80
54796;DHT22;40693;43.884;20.340;2023-08-31T06:18:44;537.60;2406.40
54796;DHT22;40693;43.884;20.340;2023-08-31T06:21:10;512.60;2380.80
54796;DHT22;40693;43.884;20.340;2023-08-31T06:23:36;537.70;2406.40
54796;DHT22;40693;43.884;20.340;2023-08-31T06:26:02;537.70;2406.40
54796;DHT22;40693;43.884;20.340;2023-08-31T06:28:28;537.70;2406.40
54796;DHT22;40693;43.884;20.340;2023-08-31T06:30:54;537.80;2406.40
54796;DHT22;40693;43.884;20.340;2023-08-31T06:33:20;537.90;2406.40
54796;DHT22;40693;43.884;20.340;2023-08-31T06:35:47;538.00;2406.40
54796;DHT22;40693;43.884;20.340;2023-08-31T06:38:19;538.10;2406.40
54796;DHT22;40693;43.884;20.340;2023-08-31T06:40:46;538.20;2406.40
54796;DHT22;40693;43.884;20.340;2023-08-31T06:43:12;538.30;2406.40
54796;DHT22;40693;43.884;20.340;2023-08-31T06:45:38;538.40;2406.40
54796;DHT22;40693;43.884;20.340;2023-08-31T06:48:04;538.40;2406.40
54796;DHT22;40693;43.884;20.340;2023-08-31T06:50:29;538.40;2406.40
54796;DHT22;40693;43.884;20.340;2023-08-31T06:52:55;538.40;2406.40
54796;DHT22;40693;43.884;20.340;2023-08-31T06:55:21;538.40;2406.40
54796;DHT22;40693;43.884;20.340;2023-08-31T06:57:47;538.50;2406.40
54796;DHT22;40693;43.884;20.340;2023-08-31T07:00:12;538.50;2406.40
54796;DHT22;40693;43.884;20.340;2023-08-31T07:02:41;538.50;2406.40
54796;DHT22;40693;43.884;20.340;2023-08-31T07:05:07;538.50;2406.40
54796;DHT22;40693;43.884;20.340;2023-08-31T07:07:34;563.30;2432.00
54796;DHT22;40693;43.884;20.340;2023-08-31T07:09:59;563.40;2432.00
54796;DHT22;40693;43.884;20.340;2023-08-31T07:12:25;563.50;2432.00
54796;DHT22;40693;43.884;20.340;2023-08-31T07:14:51;563.60;2432.00
54796;DHT22;40693;43.884;20.340;2023-08-31T07:17:20;563.70;2432.00
54796;DHT22;40693;43.884;20.340;2023-08-31T07:19:46;563.50;2432.00
54796;DHT22;40693;43.884;20.340;2023-08-31T07:22:12;563.80;2432.00
54796;DHT22;40693;43.884;20.340;2023-08-31T07:24:37;563.90;2432.00
54796;DHT22;40693;43.884;20.340;2023-08-31T07:27:03;564.10;2432.00
54796;DHT22;40693;43.884;20.340;2023-08-31T07:29:29;588.80;2432.00
54796;DHT22;40693;43.884;20.340;2023-08-31T07:31:55;588.90;2432.00
54796;DHT22;40693;43.884;20.340;2023-08-31T07:34:21;589.00;2432.00
54796;DHT22;40693;43.884;20.340;2023-08-31T07:36:47;589.00;2432.00
54796;DHT22;40693;43.884;20.340;2023-08-31T07:39:12;589.20;2432.00
54796;DHT22;40693;43.884;20.340;2023-08-31T07:41:38;589.30;2432.00
54796;DHT22;40693;43.884;20.340;2023-08-31T07:44:05;589.50;2432.00
54796;DHT22;40693;43.884;20.340;2023-08-31T07:46:31;589.60;2432.00
54796;DHT22;40693;43.884;20.340;2023-08-31T07:48:57;589.70;2432.00
54796;DHT22;40693;43.884;20.340;2023-08-31T07:51:23;614.50;2432.00
54796;DHT22;40693;43.884;20.340;2023-08-31T07:53:50;614.60;2432.00
54796;DHT22;40693;43.884;20.340;2023-08-31T07:56:15;614.70;2432.00
54796;DHT22;40693;43.884;20.340;2023-08-31T07:58:41;614.80;2432.00
54796;DHT22;40693;43.884;20.340;2023-08-31T08:01:07;615.00;2432.00
54796;DHT22;40693;43.884;20.340;2023-08-31T08:03:32;615.00;2432.00
54796;DHT22;40693;43.884;20.340;2023-08-31T08:05:58;615.10;2432.00
54796;DHT22;40693;43.884;20.340;2023-08-31T08:08:24;615.20;2432.00
54796;DHT22;40693;43.884;20.340;2023-08-31T08:10:53;615.20;2432.00
54796;DHT22;40693;43.884;20.340;2023-08-31T08:13:19;640.10;2432.00
54796;DHT22;40693;43.884;20.340;2023-08-31T08:15:46;640.30;2432.00
54796;DHT22;40693;43.884;20.340;2023-08-31T08:18:12;640.30;2406.40
54796;DHT22;40693;43.884;20.340;2023-08-31T08:20:38;640.50;2329.60
54796;DHT22;40693;43.884;20.340;2023-08-31T08:23:05;640.40;2278.40
54796;DHT22;40693;43.884;20.340;2023-08-31T08:25:32;640.40;2252.80
54796;DHT22;40693;43.884;20.340;2023-08-31T08:27:58;640.40;2252.80
54796;DHT22;40693;43.884;20.340;2023-08-31T08:30:23;640.50;2252.80
54796;DHT22;40693;43.884;20.340;2023-08-31T08:32:49;640.70;2227.20
54796;DHT22;40693;43.884;20.340;2023-08-31T08:35:15;640.90;2201.60
54796;DHT22;40693;43.884;20.340;2023-08-31T08:37:40;640.90;2176.00
54796;DHT22;40693;43.884;20.340;2023-08-31T08:40:07;665.60;2201.60
54796;DHT22;40693;43.884;20.340;2023-08-31T08:42:38;640.90;2150.40
54796;DHT22;40693;43.884;20.340;2023-08-31T08:45:08;665.70;2150.40
54796;DHT22;40693;43.884;20.340;2023-08-31T08:47:39;665.80;2150.40
54796;DHT22;40693;43.884;20.340;2023-08-31T08:50:06;665.60;2150.40
54796;DHT22;40693;43.884;20.340;2023-08-31T08:52:32;666.00;2227.20
54796;DHT22;40693;43.884;20.340;2023-08-31T08:54:58;666.10;2227.20
54796;DHT22;40693;43.884;20.340;2023-08-31T08:57:26;666.20;2176.00
54796;DHT22;40693;43.884;20.340;2023-08-31T08:59:51;666.40;2099.20
54796;DHT22;40693;43.884;20.340;2023-08-31T09:02:17;666.50;2099.20
54796;DHT22;40693;43.884;20.340;2023-08-31T09:04:43;691.30;2099.20
54796;DHT22;40693;43.884;20.340;2023-08-31T09:07:08;691.40;2073.60
54796;DHT22;40693;43.884;20.340;2023-08-31T09:09:49;691.70;2073.60
54796;DHT22;40693;43.884;20.340;2023-08-31T09:12:15;691.70;2022.40
54796;DHT22;40693;43.884;20.340;2023-08-31T09:14:41;691.60;1996.80
54796;DHT22;40693;43.884;20.340;2023-08-31T09:17:07;691.70;2048.00
54796;DHT22;40693;43.884;20.340;2023-08-31T09:19:32;691.80;1996.80
54796;DHT22;40693;43.884;20.340;2023-08-31T09:21:58;691.80;1971.20
54796;DHT22;40693;43.884;20.340;2023-08-31T09:24:25;692.10;1996.80
54796;DHT22;40693;43.884;20.340;2023-08-31T09:26:56;716.80;1971.20
54796;DHT22;40693;43.884;20.340;2023-08-31T09:29:22;716.90;1996.80
54796;DHT22;40693;43.884;20.340;2023-08-31T09:31:48;717.00;1996.80
54796;DHT22;40693;43.884;20.340;2023-08-31T09:34:15;717.00;1945.60
54796;DHT22;40693;43.884;20.340;2023-08-31T09:36:41;717.10;1945.60
54796;DHT22;40693;43.884;20.340;2023-08-31T09:39:08;717.30;1971.20
54796;DHT22;40693;43.884;20.340;2023-08-31T09:41:35;717.40;1920.00
54796;DHT22;40693;43.884;20.340;2023-08-31T09:44:17;717.50;1920.00
54796;DHT22;40693;43.884;20.340;2023-08-31T09:46:44;717.40;1894.40
54796;DHT22;40693;43.884;20.340;2023-08-31T09:49:15;717.70;1894.40
54796;DHT22;40693;43.884;20.340;2023-08-31T09:51:46;742.40;1894.40
54796;DHT22;40693;43.884;20.340;2023-08-31T09:54:15;742.60;1868.80
54796;DHT22;40693;43.884;20.340;2023-08-31T09:56:45;742.70;1894.40
54796;DHT22;40693;43.884;20.340;2023-08-31T09:59:13;742.80;1868.80
54796;DHT22;40693;43.884;20.340;2023-08-31T10:01:40;742.90;1843.20
54796;DHT22;40693;43.884;20.340;2023-08-31T10:04:07;743.00;1843.20
54796;DHT22;40693;43.884;20.340;2023-08-31T10:06:35;743.00;1792.00
54796;DHT22;40693;43.884;20.340;2023-08-31T10:09:04;743.20;1817.60
54796;DHT22;40693;43.884;20.340;2023-08-31T10:11:30;743.20;1766.40
54796;DHT22;40693;43.884;20.340;2023-08-31T10:13:57;768.00;1792.00
54796;DHT22;40693;43.884;20.340;2023-08-31T10:16:25;768.10;1740.80
54796;DHT22;40693;43.884;20.340;2023-08-31T10:18:52;768.20;1792.00
54796;DHT22;40693;43.884;20.340;2023-08-31T10:21:18;768.40;1740.80
54796;DHT22;40693;43.884;20.340;2023-08-31T10:23:45;768.50;1715.20
54796;DHT22;40693;43.884;20.340;2023-08-31T10:26:11;768.60;1715.20
54796;DHT22;40693;43.884;20.340;2023-08-31T10:28:42;768.90;1715.20
54796;DHT22;40693;43.884;20.340;2023-08-31T10:31:16;768.90;1664.00
54796;DHT22;40693;43.884;20.340;2023-08-31T10:33:57;793.70;1715.20
54796;DHT22;40693;43.884;20.340;2023-08-31T10:36:41;793.70;1689.60
54796;DHT22;40693;43.884;20.340;2023-08-31T10:39:15;793.90;1612.80
54796;DHT22;40693;43.884;20.340;2023-08-31T10:41:42;768.90;1587.20
54796;DHT22;40693;43.884;20.340;2023-08-31T10:44:27;794.10;1612.80
54796;DHT22;40693;43.884;20.340;2023-08-31T10:46:56;794.10;1561.60
54796;DHT22;40693;43.884;20.340;2023-08-31T10:49:24;794.20;1587.20
54796;DHT22;40693;43.884;20.340;2023-08-31T10:51:55;794.30;1561.60
54796;DHT22;40693;43.884;20.340;2023-08-31T10:54:31;794.10;1561.60
54796;DHT22;40693;43.884;20.340;2023-08-31T11:00:02;794.00;1612.80
54796;DHT22;40693;43.884;20.340;2023-08-31T11:05:12;794.40;1561.60
54796;DHT22;40693;43.884;20.340;2023-08-31T11:07:43;794.30;1536.00
54796;DHT22;40693;43.884;20.340;2023-08-31T11:12:41;819.20;1561.60
54796;DHT22;40693;43.884;20.340;2023-08-31T11:15:08;794.50;1536.00
54796;DHT22;40693;43.884;20.340;2023-08-31T11:17:34;794.50;1561.60
54796;DHT22;40693;43.884;20.340;2023-08-31T11:20:00;794.50;1587.20
54796;DHT22;40693;43.884;20.340;2023-08-31T11:22:26;819.20;1561.60
54796;DHT22;40693;43.884;20.340;2023-08-31T11:24:52;819.30;1484.80
54796;DHT22;40693;43.884;20.340;2023-08-31T11:27:21;819.50;1536.00
54796;DHT22;40693;43.884;20.340;2023-08-31T11:29:47;819.50;1561.60
54796;DHT22;40693;43.884;20.340;2023-08-31T11:32:13;819.60;1433.60
54796;DHT22;40693;43.884;20.340;2023-08-31T11:34:44;819.50;1459.20
54796;DHT22;40693;43.884;20.340;2023-08-31T11:37:13;819.60;1459.20
54796;DHT22;40693;43.884;20.340;2023-08-31T11:39:51;819.80;1510.40
54796;DHT22;40693;43.884;20.340;2023-08-31T11:42:19;819.60;1433.60
54796;DHT22;40693;43.884;20.340;2023-08-31T11:44:50;819.70;1459.20
54796;DHT22;40693;43.884;20.340;2023-08-31T11:47:17;819.90;1433.60
54796;DHT22;40693;43.884;20.340;2023-08-31T11:49:44;820.10;1484.80
54796;DHT22;40693;43.884;20.340;2023-08-31T11:52:12;820.10;1459.20
54796;DHT22;40693;43.884;20.340;2023-08-31T11:54:39;820.10;1408.00
54796;DHT22;40693;43.884;20.340;2023-08-31T11:57:09;820.00;1433.60
54796;DHT22;40693;43.884;20.340;2023-08-31T11:59:36;820.10;1408.00
54796;DHT22;40693;43.884;20.340;2023-08-31T12:02:05;844.80;1459.20
54796;DHT22;40693;43.884;20.340;2023-08-31T12:04:32;844.80;1433.60
54796;DHT22;40693;43.884;20.340;2023-08-31T12:07:02;844.90;1484.80
54796;DHT22;40693;43.884;20.340;2023-08-31T12:09:30;844.90;1382.40
54796;DHT22;40693;43.884;20.340;2023-08-31T12:11:56;844.90;1382.40
54796;DHT22;40693;43.884;20.340;2023-08-31T12:14:23;844.90;1433.60
54796;DHT22;40693;43.884;20.340;2023-08-31T12:16:49;845.00;1408.00
54796;DHT22;40693;43.884;20.340;2023-08-31T12:19:16;845.10;1382.40
54796;DHT22;40693;43.884;20.340;2023-08-31T12:21:46;845.20;1382.40
54796;DHT22;40693;43.884;20.340;2023-08-31T12:24:12;845.20;1305.60
54796;DHT22;40693;43.884;20.340;2023-08-31T12:26:38;845.20;1331.20
54796;DHT22;40693;43.884;20.340;2023-08-31T12:29:05;845.20;1382.40
54796;DHT22;40693;43.884;20.340;2023-08-31T12:31:31;845.10;1433.60
54796;DHT22;40693;43.884;20.340;2023-08-31T12:33:57;845.20;1459.20
54796;DHT22;40693;43.884;20.340;2023-08-31T12:36:23;845.00;1433.60
54796;DHT22;40693;43.884;20.340;2023-08-31T12:38:49;845.00;1484.80
54796;DHT22;40693;43.884;20.340;2023-08-31T12:41:15;844.90;1459.20
54796;DHT22;40693;43.884;20.340;2023-08-31T12:43:40;844.90;1433.60
54796;DHT22;40693;43.884;20.340;2023-08-31T12:46:06;820.10;1433.60
54796;DHT22;40693;43.884;20.340;2023-08-31T12:48:35;844.90;1459.20
54796;DHT22;40693;43.884;20.340;2023-08-31T12:51:01;844.90;1433.60
54796;DHT22;40693;43.884;20.340;2023-08-31T12:53:27;820.10;1408.00
54796;DHT22;40693;43.884;20.340;2023-08-31T12:55:53;820.00;1433.60
54796;DHT22;40693;43.884;20.340;2023-08-31T12:58:19;820.10;1459.20
54796;DHT22;40693;43.884;20.340;2023-08-31T13:00:47;820.00;1433.60
54796;DHT22;40693;43.884;20.340;2023-08-31T13:03:15;819.70;1459.20
54796;DHT22;40693;43.884;20.340;2023-08-31T13:05:41;819.30;1484.80
54796;DHT22;40693;43.884;20.340;2023-08-31T13:08:08;819.20;1510.40
54796;DHT22;40693;43.884;20.340;2023-08-31T13:10:35;819.30;1510.40
54796;DHT22;40693;43.884;20.340;2023-08-31T13:13:00;819.50;1510.40
54796;DHT22;40693;43.884;20.340;2023-08-31T13:15:26;819.60;1484.80
54796;DHT22;40693;43.884;20.340;2023-08-31T13:17:52;819.80;1484.80
54796;DHT22;40693;43.884;20.340;2023-08-31T13:20:18;819.80;1484.80
54796;DHT22;40693;43.884;20.340;2023-08-31T13:22:43;819.80;1459.20
54796;DHT22;40693;43.884;20.340;2023-08-31T13:25:09;819.80;1459.20
54796;DHT22;40693;43.884;20.340;2023-08-31T13:27:37;819.50;1459.20
54796;DHT22;40693;43.884;20.340;2023-08-31T13:30:03;819.60;1484.80
54796;DHT22;40693;43.884;20.340;2023-08-31T13:32:35;819.50;1433.60
54796;DHT22;40693;43.884;20.340;2023-08-31T13:35:00;819.50;1484.80
54796;DHT22;40693;43.884;20.340;2023-08-31T13:37:26;819.40;1459.20
54796;DHT22;40693;43.884;20.340;2023-08-31T13:39:52;819.40;1459.20
54796;DHT22;40693;43.884;20.340;2023-08-31T13:42:20;819.30;1484.80
54796;DHT22;40693;43.884;20.340;2023-08-31T13:44:45;819.30;1510.40
54796;DHT22;40693;43.884;20.340;2023-08-31T13:47:11;819.40;1459.20
54796;DHT22;40693;43.884;20.340;2023-08-31T13:49:37;819.60;1484.80
54796;DHT22;40693;43.884;20.340;2023-08-31T13:52:03;819.60;1459.20
54796;DHT22;40693;43.884;20.340;2023-08-31T13:54:31;819.50;1433.60
54796;DHT22;40693;43.884;20.340;2023-08-31T13:56:56;819.20;1459.20
54796;DHT22;40693;43.884;20.340;2023-08-31T13:59:22;794.50;1459.20
54796;DHT22;40693;43.884;20.340;2023-08-31T14:01:48;794.40;1433.60
54796;DHT22;40693;43.884;20.340;2023-08-31T14:04:13;794.40;1459.20
54796;DHT22;40693;43.884;20.340;2023-08-31T14:06:39;794.30;1459.20
54796;DHT22;40693;43.884;20.340;2023-08-31T14:09:05;794.20;1484.80
54796;DHT22;40693;43.884;20.340;2023-08-31T14:11:31;794.00;1484.80
54796;DHT22;40693;43.884;20.340;2023-08-31T14:14:06;794.00;1484.80
54796;DHT22;40693;43.884;20.340;2023-08-31T14:16:38;793.90;1510.40
54796;DHT22;40693;43.884;20.340;2023-08-31T14:19:04;793.70;1561.60
54796;DHT22;40693;43.884;20.340;2023-08-31T14:21:31;768.80;1536.00
54796;DHT22;40693;43.884;20.340;2023-08-31T14:23:56;768.60;1561.60
54796;DHT22;40693;43.884;20.340;2023-08-31T14:26:23;768.40;1561.60
54796;DHT22;40693;43.884;20.340;2023-08-31T14:28:50;768.10;1561.60
54796;DHT22;40693;43.884;20.340;2023-08-31T14:31:16;768.00;1587.20
54796;DHT22;40693;43.884;20.340;2023-08-31T14:33:42;743.20;1638.40
54796;DHT22;40693;43.884;20.340;2023-08-31T14:36:08;743.00;1638.40
54796;DHT22;40693;43.884;20.340;2023-08-31T14:38:34;742.90;1664.00
54796;DHT22;40693;43.884;20.340;2023-08-31T14:40:59;742.80;1715.20
54796;DHT22;40693;43.884;20.340;2023-08-31T14:43:28;742.60;1740.80
54796;DHT22;40693;43.884;20.340;2023-08-31T14:45:53;742.70;1740.80
54796;DHT22;40693;43.884;20.340;2023-08-31T14:48:19;742.70;1740.80
54796;DHT22;40693;43.884;20.340;2023-08-31T14:50:45;742.60;1740.80
54796;DHT22;40693;43.884;20.340;2023-08-31T14:53:10;742.60;1766.40